Time;durP1;ratioP1;P1;durP2;ratioP2;P2;SDS_P1;SDS_P2;PMS_P1;PMS_P2;Temp;Humidity;BMP_temperature;BMP_pressure;BME280_temperature;BME280_humidity;BME280_pressure;Samples;Min_cycle;Max_cycle;Signal;HPM_P1;HPM_P2
2023/09/30 00:04:09;;;;;;;2.30;1.17;;;17.90;99.90;;;;;;4433643;32;20068;-63
2023/09/30 00:06:34;;;;;;;0.40;0.40;;;17.90;99.90;;;;;;4437224;32;20065;-63
2023/09/30 00:08:59;;;;;;;0.30;0.30;;;17.80;99.90;;;;;;4436165;32;20187;-62
2023/09/30 00:11:25;;;;;;;0.30;0.30;;;17.60;99.90;;;;;;4436695;32;20552;-63
2023/09/30 00:13:51;;;;;;;0.85;0.77;;;17.60;99.90;;;;;;4437805;32;20061;-63
2023/09/30 00:16:18;;;;;;;1.25;0.93;;;17.60;99.90;;;;;;4431961;32;20057;-61
2023/09/30 00:18:44;;;;;;;0.73;0.50;;;17.50;99.90;;;;;;4433186;32;20069;-61
2023/09/30 00:21:10;;;;;;;2.45;0.68;;;17.50;99.90;;;;;;4430222;32;20966;-61
2023/09/30 00:23:35;;;;;;;1.30;0.70;;;17.40;99.90;;;;;;4430595;32;20113;-61
2023/09/30 00:26:01;;;;;;;0.40;0.40;;;17.30;99.90;;;;;;4436207;32;20560;-61
2023/09/30 00:28:26;;;;;;;0.37;0.37;;;17.30;99.90;;;;;;4433840;32;20541;-62
2023/09/30 00:30:52;;;;;;;0.30;0.30;;;17.30;99.90;;;;;;4434986;32;20090;-62
2023/09/30 00:33:17;;;;;;;0.30;0.30;;;17.20;99.90;;;;;;4435932;32;20114;-63
2023/09/30 00:35:43;;;;;;;0.28;0.28;;;17.20;99.90;;;;;;4436035;32;20065;-62
2023/09/30 00:38:10;;;;;;;0.30;0.30;;;17.10;99.90;;;;;;4435799;32;20099;-63
2023/09/30 00:40:35;;;;;;;3.30;0.88;;;17.00;99.90;;;;;;4436701;32;20060;-62
2023/09/30 00:43:01;;;;;;;2.33;0.62;;;17.00;99.90;;;;;;4433211;32;20254;-63
2023/09/30 00:45:27;;;;;;;2.33;0.88;;;16.90;99.90;;;;;;4434700;32;20477;-62
2023/09/30 00:47:53;;;;;;;2.30;0.47;;;16.80;99.90;;;;;;4434368;32;20069;-63
2023/09/30 00:50:20;;;;;;;0.37;0.37;;;16.80;99.90;;;;;;4434331;32;20078;-61
2023/09/30 00:52:48;;;;;;;0.25;0.25;;;16.70;99.90;;;;;;4434791;32;20097;-62
2023/09/30 00:55:15;;;;;;;0.40;0.40;;;16.70;99.90;;;;;;4434144;32;20073;-62
2023/09/30 00:57:40;;;;;;;2.75;1.45;;;16.70;99.90;;;;;;4435230;32;20180;-62
2023/09/30 01:02:37;;;;;;;1.37;0.73;;;16.50;99.90;;;;;;4433122;32;20081;-62
2023/09/30 01:05:03;;;;;;;0.75;0.50;;;16.50;99.90;;;;;;4432958;32;20508;-61
2023/09/30 01:07:28;;;;;;;0.37;0.37;;;16.40;99.90;;;;;;4435709;32;20069;-61
2023/09/30 01:09:54;;;;;;;0.20;0.20;;;16.30;99.90;;;;;;4435516;32;20076;-62
2023/09/30 01:12:19;;;;;;;2.33;0.60;;;16.30;99.90;;;;;;4435368;32;20553;-62
2023/09/30 01:14:45;;;;;;;1.83;0.93;;;16.30;99.90;;;;;;4435888;32;20085;-62
2023/09/30 01:17:13;;;;;;;0.30;0.30;;;16.30;99.90;;;;;;4435408;32;20443;-62
2023/09/30 01:19:39;;;;;;;1.02;0.60;;;16.30;99.90;;;;;;4434512;32;20537;-61
2023/09/30 01:22:05;;;;;;;4.90;0.55;;;16.30;99.90;;;;;;4431908;32;20535;-62
2023/09/30 01:24:30;;;;;;;2.28;0.73;;;16.20;99.90;;;;;;4430781;32;20135;-61
2023/09/30 01:26:56;;;;;;;0.30;0.30;;;16.20;99.90;;;;;;4432031;32;20517;-62
2023/09/30 01:29:22;;;;;;;0.28;0.28;;;16.10;99.90;;;;;;4433063;32;20065;-63
2023/09/30 01:31:49;;;;;;;4.53;0.45;;;16.00;99.90;;;;;;4435086;32;20072;-62
2023/09/30 01:34:16;;;;;;;0.30;0.30;;;16.00;99.90;;;;;;4431790;32;20097;-62
2023/09/30 01:36:43;;;;;;;4.00;0.73;;;16.00;99.90;;;;;;4432049;32;20077;-63
2023/09/30 01:39:10;;;;;;;0.35;0.35;;;15.90;99.90;;;;;;4434001;32;20077;-62
2023/09/30 01:41:36;;;;;;;0.80;0.80;;;15.90;99.90;;;;;;4433401;32;20305;-61
2023/09/30 01:44:02;;;;;;;0.30;0.30;;;15.90;99.90;;;;;;4434307;32;20118;-62
2023/09/30 01:46:27;;;;;;;10.00;1.30;;;15.80;99.90;;;;;;4435061;32;20139;-62
2023/09/30 01:48:53;;;;;;;0.30;0.30;;;15.80;99.90;;;;;;4434844;32;20065;-62
2023/09/30 01:51:18;;;;;;;7.12;2.50;;;15.80;99.90;;;;;;4434475;32;20119;-62
2023/09/30 01:53:44;;;;;;;0.40;0.40;;;15.70;99.90;;;;;;4435605;32;20093;-62
2023/09/30 01:56:09;;;;;;;0.50;0.50;;;15.60;99.90;;;;;;4434188;32;20093;-63
2023/09/30 01:58:35;;;;;;;0.68;0.60;;;15.60;99.90;;;;;;4433552;32;20069;-63
2023/09/30 02:01:03;;;;;;;0.60;0.60;;;15.50;99.90;;;;;;4434802;32;20085;-62
2023/09/30 02:03:29;;;;;;;0.32;0.32;;;15.50;99.90;;;;;;4436292;32;20084;-62
2023/09/30 02:05:55;;;;;;;0.93;0.85;;;15.40;99.90;;;;;;4437118;32;20084;-62
2023/09/30 02:08:20;;;;;;;0.68;0.32;;;15.40;99.90;;;;;;4433873;32;20121;-62
2023/09/30 02:10:46;;;;;;;4.47;0.52;;;15.30;99.90;;;;;;4434275;32;20201;-63
2023/09/30 02:13:11;;;;;;;0.30;0.30;;;15.40;99.90;;;;;;4436369;32;20086;-63
2023/09/30 02:15:41;;;;;;;3.55;0.88;;;15.40;99.90;;;;;;4435219;32;20072;-62
2023/09/30 02:18:07;;;;;;;0.20;0.20;;;15.40;99.90;;;;;;4435741;32;21305;-62
2023/09/30 02:20:32;;;;;;;10.23;0.50;;;15.40;99.90;;;;;;4434934;32;20085;-62
2023/09/30 02:22:58;;;;;;;0.30;0.30;;;15.30;99.90;;;;;;4437555;32;20082;-62
2023/09/30 02:25:24;;;;;;;0.80;0.80;;;15.20;99.90;;;;;;4436793;32;20077;-62
2023/09/30 02:27:50;;;;;;;0.50;0.50;;;15.20;99.90;;;;;;4434446;32;21289;-63
2023/09/30 02:30:17;;;;;;;3.53;1.30;;;15.20;99.90;;;;;;4431176;32;20097;-63
2023/09/30 02:32:43;;;;;;;0.30;0.30;;;15.10;99.90;;;;;;4436727;32;20069;-62
2023/09/30 02:35:10;;;;;;;0.30;0.30;;;15.20;99.90;;;;;;4438180;32;20139;-63
2023/09/30 02:37:36;;;;;;;1.62;0.80;;;15.10;99.90;;;;;;4435288;32;20144;-62
2023/09/30 02:40:05;;;;;;;0.90;0.75;;;15.10;99.90;;;;;;4436068;32;20196;-62
2023/09/30 02:42:30;;;;;;;0.30;0.30;;;15.10;99.90;;;;;;4437026;32;20069;-62
2023/09/30 02:44:56;;;;;;;0.25;0.25;;;15.00;99.90;;;;;;4436881;32;20089;-63
2023/09/30 02:47:21;;;;;;;0.55;0.55;;;14.80;99.90;;;;;;4437055;32;20124;-61
2023/09/30 02:49:47;;;;;;;0.65;0.65;;;14.80;99.90;;;;;;4420030;32;20722;-62
2023/09/30 02:52:13;;;;;;;0.50;0.50;;;14.80;99.90;;;;;;4423852;32;20801;-62
2023/09/30 02:54:38;;;;;;;1.65;1.00;;;14.80;99.90;;;;;;4421542;32;20374;-63
2023/09/30 02:57:04;;;;;;;0.73;0.65;;;14.70;99.90;;;;;;4427120;32;20057;-63
2023/09/30 02:59:29;;;;;;;0.30;0.30;;;14.70;99.90;;;;;;4423416;32;20531;-62
2023/09/30 03:01:56;;;;;;;0.40;0.40;;;14.80;99.90;;;;;;4426544;32;20093;-62
2023/09/30 03:04:25;;;;;;;0.60;0.60;;;14.90;99.90;;;;;;4409886;32;20559;-62
2023/09/30 03:06:51;;;;;;;5.80;0.95;;;14.80;99.90;;;;;;4413360;32;20118;-62
2023/09/30 03:09:17;;;;;;;0.40;0.40;;;14.80;99.90;;;;;;4415545;32;20298;-62
2023/09/30 03:11:43;;;;;;;0.55;0.55;;;14.80;99.90;;;;;;4404829;32;20137;-62
2023/09/30 03:14:10;;;;;;;2.65;0.90;;;14.70;99.90;;;;;;4415908;32;20098;-63
2023/09/30 03:16:38;;;;;;;0.52;0.52;;;14.70;99.90;;;;;;4391725;32;20571;-63
2023/09/30 03:19:08;;;;;;;0.45;0.45;;;14.70;99.90;;;;;;4413817;32;20621;-61
2023/09/30 03:21:35;;;;;;;0.80;0.75;;;14.70;99.90;;;;;;4423149;32;20131;-62
2023/09/30 03:24:02;;;;;;;0.75;0.75;;;14.80;99.90;;;;;;4414858;32;20065;-61
2023/09/30 03:26:29;;;;;;;0.30;0.30;;;14.70;99.90;;;;;;4425736;32;20111;-62
2023/09/30 03:28:55;;;;;;;0.40;0.40;;;14.70;99.90;;;;;;4424252;32;20057;-62
2023/09/30 03:31:22;;;;;;;5.68;0.70;;;14.60;99.90;;;;;;4421504;32;20066;-62
2023/09/30 03:33:48;;;;;;;0.47;0.45;;;14.70;99.90;;;;;;4410470;32;20533;-62
2023/09/30 03:36:14;;;;;;;0.50;0.50;;;14.60;99.90;;;;;;4425246;32;20081;-62
2023/09/30 03:38:41;;;;;;;0.37;0.37;;;14.50;99.90;;;;;;4425325;32;20061;-62
2023/09/30 03:41:08;;;;;;;0.80;0.60;;;14.50;99.90;;;;;;4427231;32;20104;-62
2023/09/30 03:43:40;;;;;;;1.17;0.32;;;14.40;99.90;;;;;;4425407;32;20219;-61
2023/09/30 03:46:06;;;;;;;0.30;0.30;;;14.40;99.90;;;;;;4415391;32;20136;-63
2023/09/30 03:48:32;;;;;;;2.42;0.32;;;14.40;99.90;;;;;;4431000;32;20159;-62
2023/09/30 03:50:57;;;;;;;0.70;0.65;;;14.50;99.90;;;;;;4435523;32;20092;-62
2023/09/30 03:53:26;;;;;;;0.30;0.30;;;14.40;99.90;;;;;;4438495;32;20093;-62
2023/09/30 03:55:51;;;;;;;0.37;0.35;;;14.40;99.90;;;;;;4436795;32;20160;-61
2023/09/30 03:58:18;;;;;;;3.83;1.17;;;14.50;99.90;;;;;;4434915;32;20073;-62
2023/09/30 04:00:44;;;;;;;3.17;0.65;;;14.40;99.90;;;;;;4437113;32;20081;-61
2023/09/30 04:03:10;;;;;;;2.95;1.33;;;14.30;99.90;;;;;;4437517;32;20069;-62
2023/09/30 04:05:36;;;;;;;0.90;0.65;;;14.30;99.90;;;;;;4438204;32;20062;-62
2023/09/30 04:08:03;;;;;;;0.43;0.43;;;14.40;99.90;;;;;;4436594;32;20061;-61
2023/09/30 04:10:30;;;;;;;0.40;0.40;;;14.40;99.90;;;;;;4438418;32;20065;-62
2023/09/30 04:12:56;;;;;;;5.95;2.08;;;14.40;99.90;;;;;;4422319;32;20136;-62
2023/09/30 04:15:21;;;;;;;1.05;0.95;;;14.40;99.90;;;;;;4436253;32;20073;-62
2023/09/30 04:17:48;;;;;;;13.82;1.65;;;14.30;99.90;;;;;;4420003;32;20425;-62
2023/09/30 04:20:20;;;;;;;0.40;0.40;;;14.30;99.90;;;;;;4421609;32;20057;-62
2023/09/30 04:22:48;;;;;;;0.47;0.47;;;14.30;99.90;;;;;;4423051;32;20529;-61
2023/09/30 04:25:16;;;;;;;6.87;2.10;;;14.20;99.90;;;;;;4434727;32;20061;-62
2023/09/30 04:27:42;;;;;;;1.60;0.45;;;14.20;99.90;;;;;;4437854;32;20080;-61
2023/09/30 04:30:09;;;;;;;2.75;1.42;;;14.20;99.90;;;;;;4422845;32;20053;-61
2023/09/30 04:32:36;;;;;;;1.27;0.82;;;14.20;99.90;;;;;;4409258;32;20069;-62
2023/09/30 04:35:03;;;;;;;0.60;0.60;;;14.20;99.90;;;;;;4437844;32;20394;-62
2023/09/30 04:37:28;;;;;;;1.77;0.85;;;14.20;99.90;;;;;;4436504;32;20139;-62
2023/09/30 04:39:54;;;;;;;1.45;0.62;;;14.20;99.90;;;;;;4435719;32;20418;-61
2023/09/30 04:42:19;;;;;;;3.10;0.93;;;14.20;99.90;;;;;;4437369;32;20053;-62
2023/09/30 04:44:45;;;;;;;0.40;0.40;;;14.10;99.90;;;;;;4438036;32;20085;-62
2023/09/30 04:47:11;;;;;;;3.00;1.33;;;14.00;99.90;;;;;;4436532;32;20081;-61
2023/09/30 04:49:37;;;;;;;0.30;0.30;;;14.10;99.90;;;;;;4437119;32;20060;-62
2023/09/30 04:52:03;;;;;;;0.50;0.50;;;14.00;99.90;;;;;;4435906;32;20081;-62
2023/09/30 04:54:29;;;;;;;0.35;0.35;;;14.00;99.90;;;;;;4423442;32;20089;-62
2023/09/30 04:56:55;;;;;;;3.97;0.73;;;14.00;99.90;;;;;;4436268;32;20100;-62
2023/09/30 04:59:20;;;;;;;5.82;1.48;;;13.90;99.90;;;;;;4438393;32;20060;-61
2023/09/30 05:01:46;;;;;;;1.02;0.85;;;13.90;99.90;;;;;;4436269;32;20219;-62
2023/09/30 05:04:12;;;;;;;1.20;0.50;;;13.90;99.90;;;;;;4435129;32;20130;-62
2023/09/30 05:06:38;;;;;;;6.95;1.20;;;13.90;99.90;;;;;;4436257;32;20085;-62
2023/09/30 05:09:04;;;;;;;0.35;0.35;;;13.90;99.90;;;;;;4436358;32;20084;-61
2023/09/30 05:11:31;;;;;;;0.30;0.30;;;14.00;99.90;;;;;;4436033;32;20085;-62
2023/09/30 05:13:56;;;;;;;2.10;0.88;;;13.90;99.90;;;;;;4435179;32;20105;-61
2023/09/30 05:16:22;;;;;;;1.77;1.05;;;14.00;99.90;;;;;;4436921;32;20081;-62
2023/09/30 05:18:48;;;;;;;0.82;0.82;;;14.00;99.90;;;;;;4435371;32;20089;-62
2023/09/30 05:21:13;;;;;;;0.45;0.45;;;14.00;99.90;;;;;;4435912;32;20097;-62
2023/09/30 05:23:39;;;;;;;0.47;0.47;;;14.00;99.90;;;;;;4435997;32;20599;-62
2023/09/30 05:26:04;;;;;;;0.62;0.62;;;13.90;99.90;;;;;;4420662;32;20082;-62
2023/09/30 05:28:31;;;;;;;3.92;0.85;;;13.80;99.90;;;;;;4434410;32;20085;-62
2023/09/30 05:30:56;;;;;;;0.30;0.30;;;13.80;99.90;;;;;;4436905;32;20097;-62
2023/09/30 05:33:22;;;;;;;5.65;1.23;;;13.90;99.90;;;;;;4434404;32;20077;-61
2023/09/30 05:35:48;;;;;;;5.37;1.92;;;13.90;99.90;;;;;;4435483;32;20073;-61
2023/09/30 05:38:13;;;;;;;5.22;0.90;;;13.90;99.90;;;;;;4436089;32;20215;-62
2023/09/30 05:40:39;;;;;;;0.37;0.37;;;13.90;99.90;;;;;;4434888;32;20689;-62
2023/09/30 05:43:05;;;;;;;3.92;0.75;;;13.90;99.90;;;;;;4436566;32;20081;-61
2023/09/30 05:45:34;;;;;;;0.30;0.30;;;13.90;99.90;;;;;;4437319;32;20562;-62
2023/09/30 05:48:03;;;;;;;2.95;1.05;;;13.90;99.90;;;;;;4433404;32;20066;-60
2023/09/30 05:50:29;;;;;;;5.18;0.82;;;13.90;99.90;;;;;;4399899;32;20540;-61
2023/09/30 05:52:55;;;;;;;6.75;0.60;;;13.90;99.90;;;;;;4414023;32;20177;-62
2023/09/30 05:55:22;;;;;;;1.42;0.43;;;14.00;99.90;;;;;;4413333;32;20120;-62
2023/09/30 05:57:49;;;;;;;0.93;0.80;;;13.90;99.90;;;;;;4403496;32;20513;-61
2023/09/30 06:00:20;;;;;;;3.25;0.52;;;14.00;99.90;;;;;;4417684;32;21300;-62
2023/09/30 06:02:46;;;;;;;0.35;0.35;;;14.10;99.90;;;;;;4406386;32;20065;-61
2023/09/30 06:05:11;;;;;;;4.75;0.57;;;14.20;99.90;;;;;;4417413;32;20099;-63
2023/09/30 06:07:38;;;;;;;7.68;0.77;;;14.20;99.90;;;;;;4416159;32;20074;-61
2023/09/30 06:10:05;;;;;;;0.73;0.60;;;14.30;99.90;;;;;;4419611;32;20061;-62
2023/09/30 06:12:31;;;;;;;0.70;0.43;;;14.30;99.90;;;;;;4418374;32;20069;-61
2023/09/30 06:14:56;;;;;;;2.70;1.15;;;14.30;99.90;;;;;;4415426;32;20455;-61
2023/09/30 06:17:22;;;;;;;0.60;0.60;;;14.40;99.90;;;;;;4417171;32;21134;-61
2023/09/30 06:19:50;;;;;;;3.65;1.65;;;14.40;99.90;;;;;;4419942;32;20154;-62
2023/09/30 06:22:15;;;;;;;0.35;0.35;;;14.40;99.90;;;;;;4413938;32;20081;-60
2023/09/30 06:24:41;;;;;;;5.15;1.45;;;14.30;99.90;;;;;;4417251;32;20082;-61
2023/09/30 06:27:07;;;;;;;0.45;0.45;;;14.30;99.90;;;;;;4415817;32;20077;-63
2023/09/30 06:29:33;;;;;;;0.32;0.32;;;14.40;99.90;;;;;;4402265;32;20057;-62
2023/09/30 06:31:59;;;;;;;8.25;0.60;;;14.40;99.90;;;;;;4419825;32;20062;-61
2023/09/30 06:34:25;;;;;;;3.92;0.88;;;14.40;99.90;;;;;;4418947;32;20065;-61
2023/09/30 06:36:52;;;;;;;0.60;0.60;;;14.40;99.90;;;;;;4418964;32;20114;-62
2023/09/30 06:39:18;;;;;;;0.30;0.30;;;14.40;99.90;;;;;;4405251;32;20126;-62
2023/09/30 06:41:43;;;;;;;0.80;0.80;;;14.40;99.90;;;;;;4419797;32;20168;-62
2023/09/30 06:44:09;;;;;;;6.53;0.93;;;14.50;99.90;;;;;;4416516;32;20074;-61
2023/09/30 06:46:34;;;;;;;0.88;0.88;;;14.50;99.90;;;;;;4416738;32;20077;-63
2023/09/30 06:48:59;;;;;;;0.55;0.55;;;14.50;99.90;;;;;;4425798;32;20671;-63
2023/09/30 06:51:26;;;;;;;0.25;0.25;;;14.60;99.90;;;;;;4437279;32;20045;-64
2023/09/30 06:53:52;;;;;;;4.07;1.45;;;14.60;99.90;;;;;;4435097;32;20097;-63
2023/09/30 06:56:18;;;;;;;1.60;0.90;;;14.60;99.90;;;;;;4421507;32;20097;-62
2023/09/30 06:58:43;;;;;;;11.05;0.70;;;14.60;99.90;;;;;;4436111;32;20088;-62
2023/09/30 07:01:08;;;;;;;0.52;0.50;;;14.70;99.90;;;;;;4436239;32;20143;-62
2023/09/30 07:03:34;;;;;;;1.83;1.27;;;14.80;99.90;;;;;;4438166;32;20056;-62
2023/09/30 07:06:00;;;;;;;4.82;0.65;;;14.80;99.90;;;;;;4436592;32;20057;-63
2023/09/30 07:08:29;;;;;;;30.05;1.00;;;14.70;99.90;;;;;;4437158;32;20615;-63
2023/09/30 07:10:56;;;;;;;0.30;0.30;;;14.70;99.90;;;;;;4436608;32;20061;-64
2023/09/30 07:13:22;;;;;;;2.85;1.60;;;14.70;99.90;;;;;;4434627;32;20135;-63
2023/09/30 07:15:47;;;;;;;2.42;1.17;;;14.80;99.90;;;;;;4409911;32;20481;-62
2023/09/30 07:18:13;;;;;;;4.40;1.05;;;14.90;99.90;;;;;;4436708;32;20076;-64
2023/09/30 07:20:39;;;;;;;0.50;0.50;;;15.00;99.90;;;;;;4434189;32;20081;-64
2023/09/30 07:23:05;;;;;;;0.37;0.37;;;14.90;99.90;;;;;;4432659;32;20077;-63
2023/09/30 07:25:34;;;;;;;0.30;0.30;;;14.80;99.90;;;;;;4432023;32;20123;-64
2023/09/30 07:28:00;;;;;;;0.55;0.55;;;14.80;99.90;;;;;;4431488;32;20097;-64
2023/09/30 07:30:26;;;;;;;0.30;0.30;;;15.00;99.90;;;;;;4420648;32;20487;-63
2023/09/30 07:32:51;;;;;;;0.65;0.65;;;15.10;99.90;;;;;;4432246;32;20076;-63
2023/09/30 07:35:17;;;;;;;0.50;0.50;;;15.10;99.90;;;;;;4434651;32;20084;-63
2023/09/30 07:37:44;;;;;;;0.55;0.55;;;15.00;99.90;;;;;;4433039;32;20161;-63
2023/09/30 07:40:10;;;;;;;0.50;0.50;;;15.00;99.90;;;;;;4435114;32;20069;-64
2023/09/30 07:42:36;;;;;;;0.30;0.30;;;15.10;99.90;;;;;;4421291;32;20061;-63
2023/09/30 07:45:03;;;;;;;2.30;1.00;;;15.00;99.90;;;;;;4436342;32;20077;-64
2023/09/30 07:47:30;;;;;;;2.85;0.90;;;15.10;99.90;;;;;;4434842;32;20145;-64
2023/09/30 07:49:56;;;;;;;0.45;0.45;;;15.10;99.90;;;;;;4435561;32;20081;-63
2023/09/30 07:52:21;;;;;;;0.50;0.50;;;15.10;99.90;;;;;;4419223;32;20184;-64
2023/09/30 07:54:47;;;;;;;1.65;0.50;;;15.10;99.90;;;;;;4436144;32;20089;-63
2023/09/30 07:57:13;;;;;;;5.57;1.15;;;15.10;99.90;;;;;;4435333;32;20546;-63
2023/09/30 07:59:38;;;;;;;1.15;0.60;;;15.20;99.90;;;;;;4434848;32;20830;-64
2023/09/30 08:02:04;;;;;;;0.85;0.68;;;15.20;99.90;;;;;;4435665;32;20085;-64
2023/09/30 08:04:30;;;;;;;1.35;0.95;;;15.10;99.90;;;;;;4435962;32;20189;-64
2023/09/30 08:06:56;;;;;;;0.60;0.60;;;15.20;99.90;;;;;;4434751;32;20076;-63
2023/09/30 08:09:23;;;;;;;1.12;0.65;;;15.20;99.90;;;;;;4434184;32;20086;-64
2023/09/30 08:11:50;;;;;;;0.30;0.30;;;15.20;99.90;;;;;;4434603;32;20080;-64
2023/09/30 08:14:16;;;;;;;0.32;0.32;;;15.20;99.90;;;;;;4433701;32;20069;-64
2023/09/30 08:16:42;;;;;;;0.40;0.40;;;15.30;99.90;;;;;;4435193;32;20087;-62
2023/09/30 08:19:08;;;;;;;0.77;0.70;;;15.30;99.90;;;;;;4418476;32;20174;-62
2023/09/30 08:21:34;;;;;;;0.93;0.45;;;15.50;99.90;;;;;;4434275;32;20504;-62
2023/09/30 08:24:00;;;;;;;0.47;0.47;;;15.60;99.90;;;;;;4418419;32;21137;-62
2023/09/30 08:26:25;;;;;;;1.52;0.85;;;15.70;99.90;;;;;;4414834;32;20072;-60
2023/09/30 08:28:51;;;;;;;0.62;0.62;;;16.00;99.90;;;;;;4432219;32;20563;-62
2023/09/30 08:31:16;;;;;;;2.00;1.08;;;16.10;99.90;;;;;;4431286;32;20069;-62
2023/09/30 08:33:45;;;;;;;0.30;0.30;;;16.00;99.90;;;;;;4432933;32;20098;-63
2023/09/30 08:36:10;;;;;;;3.25;0.65;;;16.00;99.90;;;;;;4435434;32;20101;-63
2023/09/30 08:38:37;;;;;;;5.90;0.60;;;16.00;99.90;;;;;;4421523;32;20074;-62
2023/09/30 08:41:03;;;;;;;0.82;0.82;;;16.00;99.90;;;;;;4414431;32;20077;-62
2023/09/30 08:43:31;;;;;;;0.30;0.30;;;16.00;99.90;;;;;;4420756;32;20186;-62
2023/09/30 08:45:58;;;;;;;0.47;0.47;;;16.20;99.90;;;;;;4420544;32;20077;-63
2023/09/30 08:48:26;;;;;;;0.80;0.45;;;16.20;99.90;;;;;;4421393;32;20132;-63
2023/09/30 08:50:53;;;;;;;0.50;0.50;;;16.30;99.90;;;;;;4434477;32;20513;-61
2023/09/30 08:53:19;;;;;;;0.62;0.45;;;16.30;99.90;;;;;;4418485;32;20123;-63
2023/09/30 08:55:46;;;;;;;2.05;0.85;;;16.30;99.90;;;;;;4418005;32;20076;-63
2023/09/30 08:58:13;;;;;;;1.15;0.75;;;16.20;99.90;;;;;;4417965;32;20093;-63
2023/09/30 09:00:39;;;;;;;0.45;0.45;;;16.20;99.90;;;;;;4417063;32;20140;-62
2023/09/30 09:03:07;;;;;;;2.37;1.77;;;16.20;99.90;;;;;;4418023;32;20468;-63
2023/09/30 09:05:32;;;;;;;0.82;0.82;;;16.30;99.90;;;;;;4406261;32;20097;-62
2023/09/30 09:07:58;;;;;;;1.45;0.70;;;16.30;99.90;;;;;;4430628;32;20532;-63
2023/09/30 09:10:23;;;;;;;3.03;1.10;;;16.30;99.90;;;;;;4429183;32;20080;-62
2023/09/30 09:12:58;;;;;;;5.60;0.85;;;16.30;99.90;;;;;;4434004;32;20065;-63
2023/09/30 09:15:26;;;;;;;1.27;0.70;;;16.40;99.90;;;;;;4419047;32;20069;-63
2023/09/30 09:17:54;;;;;;;0.50;0.50;;;16.50;99.90;;;;;;4422334;32;20097;-63
2023/09/30 09:20:22;;;;;;;0.68;0.68;;;16.60;99.90;;;;;;4420889;32;20065;-62
2023/09/30 09:22:52;;;;;;;0.77;0.70;;;16.80;99.90;;;;;;4420273;32;20321;-62
2023/09/30 09:25:18;;;;;;;3.33;1.02;;;16.90;99.90;;;;;;4432170;32;20152;-63
2023/09/30 09:27:44;;;;;;;0.40;0.40;;;17.10;99.90;;;;;;4433426;32;20049;-63
2023/09/30 09:30:21;;;;;;;1.60;0.65;;;17.30;99.90;;;;;;4418567;32;20070;-62
2023/09/30 09:33:07;;;;;;;0.60;0.60;;;17.40;99.90;;;;;;4420889;32;20098;-63
2023/09/30 09:35:34;;;;;;;0.35;0.35;;;17.40;99.90;;;;;;4426791;32;20124;-63
2023/09/30 09:38:05;;;;;;;6.68;1.10;;;17.40;99.90;;;;;;4434215;32;20098;-62
2023/09/30 09:40:33;;;;;;;0.77;0.77;;;17.40;99.90;;;;;;4435101;32;20567;-63
2023/09/30 09:43:02;;;;;;;5.37;1.27;;;17.50;99.90;;;;;;4435885;32;20084;-62
2023/09/30 09:45:28;;;;;;;0.65;0.65;;;17.60;99.90;;;;;;4435766;32;20144;-63
2023/09/30 09:47:54;;;;;;;0.98;0.62;;;17.60;99.90;;;;;;4438887;32;20096;-63
2023/09/30 09:50:22;;;;;;;0.95;0.55;;;17.60;99.90;;;;;;4434605;32;20734;-64
2023/09/30 09:52:50;;;;;;;0.30;0.30;;;17.70;99.90;;;;;;4409426;32;21381;-63
2023/09/30 09:55:18;;;;;;;2.97;0.85;;;17.70;99.90;;;;;;4432811;32;20123;-63
2023/09/30 09:57:45;;;;;;;0.50;0.50;;;17.70;99.90;;;;;;4420139;32;20100;-62
2023/09/30 10:02:36;;;;;;;6.03;0.60;;;17.80;99.90;;;;;;4437017;32;20448;-63
2023/09/30 10:05:03;;;;;;;0.30;0.30;;;17.80;99.90;;;;;;4424930;32;20057;-63
2023/09/30 10:07:35;;;;;;;0.55;0.37;;;17.80;99.90;;;;;;4434396;32;21754;-62
2023/09/30 10:10:06;;;;;;;2.37;0.70;;;17.80;99.90;;;;;;4422482;32;21024;-62
2023/09/30 10:12:39;;;;;;;0.35;0.35;;;18.00;99.90;;;;;;4434189;32;20077;-64
2023/09/30 10:15:26;;;;;;;0.35;0.35;;;18.10;99.90;;;;;;4435686;32;20085;-62
2023/09/30 10:18:10;;;;;;;4.07;0.80;;;18.20;99.90;;;;;;4424109;32;20073;-63
2023/09/30 10:20:38;;;;;;;0.20;0.20;;;18.20;99.90;;;;;;4423778;32;20078;-62
2023/09/30 10:23:21;;;;;;;0.30;0.30;;;18.30;99.90;;;;;;4424262;32;20077;-63
2023/09/30 10:25:47;;;;;;;1.00;0.45;;;18.40;99.90;;;;;;4408449;32;20286;-63
2023/09/30 10:28:34;;;;;;;0.50;0.50;;;18.40;99.90;;;;;;4436204;32;20058;-62
2023/09/30 10:31:19;;;;;;;0.30;0.30;;;18.40;99.90;;;;;;4407224;32;20066;-62
2023/09/30 10:34:02;;;;;;;6.62;0.73;;;18.40;99.90;;;;;;4437513;32;20139;-62
2023/09/30 10:36:29;;;;;;;0.35;0.35;;;18.30;99.90;;;;;;4438077;32;20097;-62
2023/09/30 10:38:55;;;;;;;0.70;0.70;;;18.30;99.90;;;;;;4421821;32;20136;-63
2023/09/30 10:41:45;;;;;;;0.45;0.45;;;18.30;99.90;;;;;;4433572;32;20493;-62
2023/09/30 10:44:29;;;;;;;0.50;0.50;;;18.20;99.90;;;;;;4426111;32;20595;-63
2023/09/30 10:46:57;;;;;;;0.40;0.32;;;18.30;99.90;;;;;;4437168;32;20149;-62
2023/09/30 10:49:25;;;;;;;0.40;0.40;;;18.40;99.90;;;;;;4421328;32;20089;-63
2023/09/30 10:51:52;;;;;;;0.30;0.30;;;18.60;99.90;;;;;;4433388;32;20076;-63
2023/09/30 10:54:27;;;;;;;1.05;0.50;;;18.50;99.90;;;;;;4407546;32;20334;-62
2023/09/30 10:56:53;;;;;;;1.30;0.75;;;18.60;99.90;;;;;;4436083;32;20123;-63
2023/09/30 10:59:20;;;;;;;0.28;0.28;;;18.70;99.90;;;;;;4409592;32;20116;-61
2023/09/30 11:01:46;;;;;;;0.45;0.45;;;19.00;99.90;;;;;;4408508;32;20124;-63
2023/09/30 11:04:11;;;;;;;0.20;0.20;;;19.10;99.90;;;;;;4434800;32;20457;-63
2023/09/30 11:06:41;;;;;;;0.85;0.68;;;19.00;99.90;;;;;;4434395;32;20065;-63
2023/09/30 11:09:12;;;;;;;0.30;0.30;;;19.00;99.90;;;;;;4411266;32;20198;-63
2023/09/30 11:11:43;;;;;;;0.60;0.60;;;18.90;99.90;;;;;;4421257;32;20195;-61
2023/09/30 11:14:26;;;;;;;1.87;0.80;;;18.70;99.90;;;;;;4433591;32;20512;-63
2023/09/30 11:16:53;;;;;;;1.12;0.50;;;18.70;99.90;;;;;;4434678;32;20070;-62
2023/09/30 11:19:20;;;;;;;4.82;1.17;;;18.90;99.90;;;;;;4435075;32;20089;-63
2023/09/30 11:21:50;;;;;;;2.00;0.50;;;19.20;99.90;;;;;;4429668;32;20537;-62
2023/09/30 11:24:16;;;;;;;7.73;0.67;;;19.20;99.90;;;;;;4433768;32;20099;-63
2023/09/30 11:26:43;;;;;;;1.27;1.17;;;19.20;99.90;;;;;;4415388;32;20187;-62
2023/09/30 11:29:11;;;;;;;0.50;0.50;;;19.40;99.90;;;;;;4412973;32;20532;-63
2023/09/30 11:31:38;;;;;;;0.30;0.30;;;19.60;99.90;;;;;;4426779;32;20061;-63
2023/09/30 11:34:04;;;;;;;0.40;0.40;;;19.90;99.90;;;;;;4418200;32;20081;-63
2023/09/30 11:36:31;;;;;;;0.37;0.35;;;20.30;99.90;;;;;;4418731;32;20128;-63
2023/09/30 11:38:58;;;;;;;0.30;0.30;;;20.40;99.90;;;;;;4409500;32;20077;-63
2023/09/30 11:41:38;;;;;;;4.03;0.80;;;20.50;99.90;;;;;;4433158;32;20152;-63
2023/09/30 11:44:07;;;;;;;0.20;0.20;;;20.90;99.90;;;;;;4419459;32;20089;-63
2023/09/30 11:46:49;;;;;;;0.50;0.50;;;21.20;99.90;;;;;;4420321;32;20077;-63
2023/09/30 11:49:27;;;;;;;0.28;0.28;;;21.10;99.90;;;;;;4429717;32;84684;-64
2023/09/30 11:51:53;;;;;;;1.98;0.52;;;21.20;99.90;;;;;;4431972;32;20100;-60
2023/09/30 11:54:19;;;;;;;0.28;0.28;;;21.40;99.90;;;;;;4419816;32;20116;-63
2023/09/30 11:56:45;;;;;;;0.20;0.20;;;21.60;99.90;;;;;;4419227;32;20060;-63
2023/09/30 11:59:10;;;;;;;0.30;0.30;;;21.80;99.90;;;;;;4431893;32;20139;-64
2023/09/30 12:01:37;;;;;;;0.60;0.35;;;21.60;99.90;;;;;;4417596;32;20887;-63
2023/09/30 12:04:03;;;;;;;1.98;0.52;;;21.20;99.90;;;;;;4430142;32;20217;-64
2023/09/30 12:06:29;;;;;;;4.90;1.17;;;21.30;99.90;;;;;;4433408;32;20088;-63
2023/09/30 12:08:54;;;;;;;0.20;0.20;;;21.60;99.90;;;;;;4433702;32;20450;-64
2023/09/30 12:11:20;;;;;;;0.35;0.35;;;21.90;99.90;;;;;;4432043;32;20581;-63
2023/09/30 12:13:48;;;;;;;0.55;0.50;;;22.10;99.90;;;;;;4434114;32;20122;-63
2023/09/30 12:16:14;;;;;;;0.32;0.32;;;22.20;99.90;;;;;;4434873;32;20093;-63
2023/09/30 12:18:41;;;;;;;0.43;0.32;;;22.40;99.90;;;;;;4435382;32;20509;-64
2023/09/30 12:21:08;;;;;;;0.50;0.50;;;22.20;99.90;;;;;;4434882;32;21336;-64
2023/09/30 12:23:33;;;;;;;1.15;0.55;;;21.90;99.90;;;;;;4436427;32;20124;-63
2023/09/30 12:25:59;;;;;;;0.20;0.20;;;21.30;99.90;;;;;;4436646;32;20085;-62
2023/09/30 12:28:24;;;;;;;0.10;0.10;;;21.00;99.90;;;;;;4420202;32;20122;-63
2023/09/30 12:30:49;;;;;;;0.20;0.20;;;20.80;99.90;;;;;;4434190;32;20073;-62
2023/09/30 12:33:15;;;;;;;0.20;0.20;;;20.70;99.90;;;;;;4435232;32;20178;-62
2023/09/30 12:35:40;;;;;;;0.30;0.30;;;20.50;99.90;;;;;;4438497;32;20088;-63
2023/09/30 12:38:06;;;;;;;1.00;0.35;;;20.50;99.90;;;;;;4422311;32;20097;-63
2023/09/30 12:40:31;;;;;;;0.50;0.50;;;20.50;99.90;;;;;;4436507;32;20084;-63
2023/09/30 12:42:57;;;;;;;0.57;0.52;;;20.80;99.90;;;;;;4431458;32;20102;-63
2023/09/30 12:45:23;;;;;;;0.30;0.30;;;21.40;99.90;;;;;;4437050;32;20093;-62
2023/09/30 12:47:52;;;;;;;0.52;0.52;;;21.70;99.90;;;;;;4436402;32;20109;-64
2023/09/30 12:50:17;;;;;;;0.10;0.10;;;21.70;99.90;;;;;;4434849;32;20094;-64
2023/09/30 12:52:44;;;;;;;0.55;0.55;;;22.10;99.90;;;;;;4426490;32;20085;-61